RAIN

Not for real navigation. The accuracy of this data is not assured See disclaimer for more information



ICAO NAME COUNTRY WIND Kt GUST Kt VIS m TEMP/DEW C BARO METAR
CYHK Gjoa Haven Airport Canada 13 0 200 7/7 30.08 CYHK 191400Z AUTO 02013KT 0.125SM -RA FG VV002 07/07 A3008 RMK SLP192
PAMM Metlakatla, Metlakatla Seaplan AK United States 7 0 400 12/9 29.89 PAMM 191428Z AUTO 08007KT 0.25SM -RA FEW070 12/09 A2989 RMK AO2 RAB01 P0000 $
KPAM Tyndall Air Force Base FL United States 16 0 400 24/23 30.07 KPAM 191356Z 31016KT 0.25SM R32/1600V3000FT +TSRA FEW005 OVC016 24/23 A3007 RMK AO2A PRESFR SLP186 P
KAAF APALACHICOLA MUNICIPAL AIRPORT FL United States 5 0 1200 23/22 30.09 KAAF 191421Z AUTO 01005KT 0.75SM +TSRA BR FEW008 BKN026 OVC033 23/22 A3009 RMK AO2 LTG NOOP E AND W
CYNC Aeroport de Wemindji, Que. Canada 11 0 1600 13/13 29.41 CYNC 191422Z 27011KT 1SM -RA BR OVC001 13/13 A2941 RMK FG6SF2 SLP962 DENSITY ALT 500FT

Show more